Whale Point, California Weather observations

Data are for observation ending at time listed.
 Day   Time    Ave.   Ave.  Ave.  Vector   Max.   Stn.    Total    Solar   Ave.  
  of    of     Air    Rel.  Wind   Wind    Wind   Baro.  Precip.   Rad.    Soil  
Year   Day     Temp.  Hum.  Speed  Dir.    Gust   Pres.                    Temp. 
2016   (PST)    F      %     mph   deg.    mph     mb.     in.     W/m2     F   
------------------------------------------------------------------------------
 181   17:40   58.3    74    4.7   235      7.4   991.5    0.00     207    83.8
 181   17:50   57.9    75    4.8   230      8.0   991.5    0.00     298    84.0
 181   18:00   57.4    76    3.8   226      6.2   991.5    0.00     263    84.1
 181   18:10   56.5    78    4.8   222      7.9   991.5    0.00     224    84.2
 181   18:20   55.5    80    4.5   216      8.7   991.5    0.00     183    84.3
 181   18:30   55.5    80    4.7   207      8.6   991.5    0.00     108    84.4
 181   18:40   56.4    78    2.1   190      7.6   991.5    0.00     127    84.4
 181   18:50   56.0    78    2.7   210      6.2   991.5    0.00      98    84.5
 181   19:00   55.0    81    2.6   203      6.3   991.2    0.00      70    84.5
 181   19:10   54.4    82    1.7   190      4.2   991.2    0.00      35    84.6
 181   19:20   53.2    84    2.7   164      6.9   991.2    0.00      12    84.6
 181   19:30   52.4    86    3.1   158      7.1   991.5    0.00       5    84.6
 181   19:40   51.9    88    5.1   149      7.9   991.5    0.00       2    84.6
 181   19:50   51.5    89    4.4   155      7.0   991.5    0.00       1    84.6
 181   20:00   51.4    90    4.6   146      8.1   991.5    0.00       0    84.5
 181   20:10   51.2    90    5.3   151      8.8   991.5    0.00       0    84.5
 181   20:20   51.0    91    4.9   147      8.0   991.5    0.00       0    84.4
 181   20:30   50.8    91    3.2   145      7.2   991.5    0.00       0    84.3
 181   20:40   50.6    92    3.9   132      6.9   991.5    0.00       0    84.2
 181   20:50   50.5    92    4.5   118      8.8   991.5    0.00       0    84.1
 181   21:00   50.3    93    4.7   115      8.5   991.5    0.00       0    84.0
 181   21:10   50.2    93    4.3   135      8.3   991.5    0.00       0    83.9
 181   21:20   50.1    94    2.7   134      6.6   991.5    0.00       0    83.7
 181   21:30   50.1    94    1.2   226      5.6   991.5    0.00       0    83.6
 181   21:40   50.1    94    1.4   294      5.1   991.5    0.00       0    83.4
 181   21:50   50.1    94    2.5   111      6.3   991.5    0.00       0    83.3
 181   22:00   49.8    94    2.6    83      6.2   991.5    0.00       0    83.1
 181   22:10   49.7    94    2.5    53      5.0   991.5    0.00       0    83.0
 181   22:20   49.8    94    2.1    90      6.7   991.5    0.00       0    82.8
 181   22:30   49.8    94    1.2    42      4.5   991.5    0.00       0    82.7
 181   22:40   49.7    94    2.1    50      6.3   991.5    0.00       0    82.5
 181   22:50   49.6    95    0.9    33      4.3   991.5    0.00       0    82.4
 181   23:00   49.4    95    4.9    14      9.1   991.5    0.00       0    82.2
 181   23:10   49.0    95    6.2     5      9.1   991.2    0.00       0    82.1
 181   23:20   49.0    95    4.8     7      8.9   991.2    0.00       0    81.9
 181   23:30   49.1    95    5.0   355     10.9   991.2    0.00       0    81.8
 181   23:40   48.6    95    2.5   359      4.8   991.2    0.00       0    81.6
 181   23:50   49.3    95    2.6    32      5.9   990.9    0.00       0    81.5
 182    0:00   51.0    94    2.3   255      9.5   991.2    0.00       0    81.3
 182    0:10   50.8    90    3.9   324     13.7   991.2    0.00       0    81.1
 182    0:20   50.0    91    3.5   242     11.3   991.5    0.00       0    81.0
 182    0:30   49.5    93    2.2   196      6.0   991.5    0.00       0    80.9
 182    0:40   49.4    94    1.4   228      3.4   991.2    0.00       0    80.7
 182    0:50   49.4    94    2.1   334      4.7   991.2    0.00       0    80.5
 182    1:00   49.3    94    2.0   303      6.8   991.2    0.00       0    80.4
 182    1:10   49.1    94    5.1    14      8.1   991.2    0.00       0    80.3
 182    1:20   48.7    94    3.0   116      8.7   991.2    0.00       0    80.1
 182    1:30   48.7    95    1.0   161      2.6   991.2    0.00       0    80.0
 182    1:40   48.9    95    0.4   312      1.8   991.2    0.00       0    79.8
 182    1:50   48.9    95    0.5    22      2.0   991.2    0.00       0    79.7
 182    2:00   48.8    95    0.2   184      1.1   991.2    0.00       0    79.5
 182    2:10   49.0    95    0.7     2      3.4   991.2    0.00       0    79.4
 182    2:20   48.6    95    1.1   167      4.2   990.9    0.00       0    79.3
 182    2:30   48.6    95    0.5   318      1.6   990.9    0.00       0    79.1
 182    2:40   48.6    95    1.7   241      3.9   990.9    0.00       0    79.0
 182    2:50   48.4    95    1.1   188      3.6   991.2    0.00       0    78.9
 182    3:00   47.9    95    1.6   123      3.4   990.9    0.00       0    78.8
 182    3:10   48.2    95    0.4   238      1.8   991.2    0.00       0    78.6
 182    3:20   48.2    95    1.0     3      2.9   991.2    0.00       0    78.5
 182    3:30   48.1    95    0.5    48      2.1   991.2    0.00       0    78.4
 182    3:40   47.9    95    0.2    38      1.4   991.2    0.00       0    78.3
 182    3:50   47.9    95    0.4   346      2.1   991.2    0.00       0    78.2
 182    4:00   47.8    95    2.3     5      3.8   991.2    0.00       0    78.1
 182    4:10   47.7    96    0.1   351      1.7   991.2    0.00       0    78.0
 182    4:20   47.9    96    0.3   206      1.5   991.2    0.00       0    77.9
 182    4:30   47.9    96    0.5   158      2.5   991.2    0.00       0    77.8
 182    4:40   47.9    96    0.8   175      3.7   991.2    0.00       0    77.6
 182    4:50   47.8    96    1.1    32      5.1   991.2    0.00       1    77.5
 182    5:00   47.5    96    1.5    71      3.9   991.2    0.00       2    77.5
 182    5:10   47.6    96    1.0   357      2.5   991.5    0.00       3    77.3
 182    5:20   47.4    96    2.9    20      5.1   991.5    0.00       5    77.3
 182    5:30   47.0    96    1.1    59      3.7   991.2    0.00       7    77.2
 182    5:40   47.1    96    0.6   358      2.3   991.2    0.00       7    77.1
 182    5:50   47.1    96    1.8   352      3.9   991.5    0.00      31    77.0
 182    6:00   47.2    96    1.7     1      3.4   991.5    0.00      50    76.9
 182    6:10   47.4    96    1.3     4      3.1   991.5    0.00      64    76.8
 182    6:20   47.6    96    1.1   246      2.9   991.5    0.00      63    76.7
 182    6:30   47.4    96    0.8   246      2.2   991.5    0.00      70    76.6
 182    6:40   47.8    96    0.7   271      2.2   991.9    0.00      82    76.5
 182    6:50   48.1    96    1.2   246      3.1   991.9    0.00      88    76.4
 182    7:00   48.0    96    1.6   238      4.2   992.2    0.00      95    76.3
 182    7:10   47.9    96    1.9   220      3.8   992.2    0.00     110    76.2
 182    7:20   48.1    96    1.6   214      3.7   992.2    0.00     125    76.2
 182    7:30   48.3    96    2.1   228      4.0   991.9    0.00     147    76.1
 182    7:40   48.4    96    2.4   227      4.3   991.9    0.00     160    76.0
 182    7:50   48.8    96    2.0   228      3.9   992.2    0.00     253    75.9
 182    8:00   49.0    96    3.7   221      6.1   992.6    0.00     256    75.8
 182    8:10   49.3    96    3.6   222      5.5   992.6    0.00     291    75.8
 182    8:20   49.4    96    3.9   219      5.5   992.6    0.00     289    75.7
 182    8:30   49.7    96    3.4   226      4.8   992.6    0.00     304    75.7
 182    8:40   49.9    95    3.6   222      5.7   992.6    0.00     316    75.6
 182    8:50   50.1    95    3.6   226      5.7   992.6    0.00     331    75.6
 182    9:00   50.1    95    3.5   228      5.6   992.6    0.00     364    75.5
 182    9:10   50.1    94    4.3   227      6.1   992.2    0.00     368    75.5
 182    9:20   50.4    94    4.3   230      6.4   992.6    0.00     358    75.5
 182    9:30   50.6    93    3.8   221      5.8   992.6    0.00     377    75.5
 182    9:40   51.0    91    4.0   223      5.6   992.6    0.00     387    75.4
 182    9:50   51.0    90    3.5   218      5.8   992.6    0.00     409    75.4
 182   10:00   51.7    89    4.0   217      6.4   992.6    0.00     468    75.4
 182   10:10   51.9    88    4.2   226      6.7   992.9    0.00     590    75.4
 182   10:20   53.0    86    5.1   234      8.1   992.9    0.00     696    75.5
 182   10:30   52.9    85    5.1   216      7.7   992.9    0.00     739    75.5
 182   10:40   53.5    85    5.2   216      7.5   992.9    0.00     739    75.5
 182   10:50   53.4    85    5.7   222      8.1   992.6    0.00     824    75.5
 182   11:00   53.5    85    5.1   211      7.5   992.6    0.00     637    75.5
 182   11:10   53.4    85    4.7   214      6.9   992.9    0.00     557    75.6
 182   11:20   53.3    85    4.1   216      7.0   992.9    0.00     520    75.6
 182   11:30   53.0    85    4.1   219      6.2   992.9    0.00     549    75.7
 182   11:40   53.3    86    4.5   221      6.6   992.9    0.00     738    75.7
 182   11:50   54.2    83    5.0   221      7.5   992.9    0.00     649    75.8
 182   12:00   53.8    85    4.4   216      6.6   992.9    0.00     588    75.9
 182   12:10   54.6    82    4.8   224      7.5   992.9    0.00     855    75.9
 182   12:20   55.1    81    4.9   215      7.3   992.6    0.00    1001    76.0
 182   12:30   55.4    80    5.7   223      8.8   992.6    0.00    1040    76.1
 182   12:40   55.7    79    6.1   225      8.0   992.6    0.00    1034    76.3
 182   12:50   56.1    78    5.5   221      9.1   992.6    0.00    1064    76.4
 182   13:00   56.3    78    6.0   226      8.4   992.2    0.00    1009    76.4
 182   13:10   55.0    81    6.5   225      9.4   992.2    0.00    1000    76.6
 182   13:20   56.4    78    6.3   221      8.8   992.2    0.00    1076    76.7
 182   13:30   57.0    76    6.3   219      9.5   992.2    0.00    1048    76.8
 182   13:40   57.5    75    6.3   227      9.9   992.2    0.00    1046    76.9
 182   13:50   57.8    74    6.0   227      9.1   992.2    0.00    1008    77.1
 182   14:00   57.7    75    5.7   236      9.7   992.2    0.00     983    77.3
 182   14:10   58.1    74    6.0   228      9.3   991.9    0.00     946    77.5
 182   14:20   58.0    74    5.7   227      8.7   991.9    0.00     947    77.6
 182   14:30   58.2    74    5.8   240      9.3   991.9    0.00     931    77.8
 182   14:40   57.9    75    5.5   250      8.9   991.9    0.00     913    78.0
 182   14:50   58.2    75    5.9   231      9.6   991.5    0.00     885    78.2
 182   15:00   57.9    75    5.8   235     10.4   991.5    0.00     864    78.4
 182   15:10   58.4    74    4.9   246      8.8   991.5    0.00     829    78.7
 182   15:20   56.8    77    5.9   238     11.8   991.5    0.00     806    78.9
 182   15:30   57.1    77    5.3   227     13.0   991.2    0.00     777    79.1
 182   15:40   56.9    78    6.2   226     11.8   991.2    0.00     748    79.3
 182   15:50   56.9    78    5.5   237     13.3   990.9    0.00     717    79.5
 182   16:00   56.9    78    6.3   235     12.0   990.9    0.00     685    79.8
 182   16:10   57.1    77    6.4   229     11.5   990.5    0.00     620    80.0
 182   16:20   58.1    76    5.0   238     12.6   990.5    0.00     598    80.2
 182   16:30   58.4    75    5.4   248     11.4   990.9    0.00     588    80.3
 182   16:40   58.6    75    5.0   259     11.5   990.5    0.00     542    80.5
 182   16:50   58.7    74    5.7   251     10.3   990.5    0.00     385    80.7
 182   17:00   57.9    76    6.3   242     10.3   990.5    0.00     466    80.9
 182   17:10   57.4    78    4.9   247     11.3   990.5    0.00     168    81.1
 182   17:20   58.4    75    4.2   232     10.5   990.5    0.00     114    81.2
 182   17:30   57.1    78    5.6   251      9.1   990.2    0.00     136    81.4

Return to Whale Point graphs page.


Western Regional Climate Center,wrcc@dri.edu